Aviation Digital Data Service (ADDS)

Output produced by TAFs form (1417 UTC 16 July 2018)
found at http://www.aviationweather.gov/adds/tafs/
 
METAR text: WIII 161400Z 08002KT 6000 FEW021 27/21 Q1010 NOSIG
Conditions at: WIII (SOEKARNO-HATTA I, ID) observed 1400 UTC 16 July 2018
Temperature: 27.0°C (81°F)
Dewpoint: 21.0°C (70°F) [RH = 70%]
Pressure (altimeter): 29.82 inches Hg (1010.0 mb)
Winds: from the E (80 degrees) at 2 MPH (2 knots; 1.0 m/s)
Visibility: 4 miles (6 km)
Ceiling: at least 12,000 feet AGL
Clouds: few clouds at 2100 feet AGL
Weather: no significant weather observed at this time

Forecast for: WIII (SOEKARNO-HATTA I, ID)
Text: TAF WIII 161100Z 1612/1718 04003KT 5000 HZ FEW020
Forecast period: 1200 to 1500 UTC 16 July 2018
Forecast type: FROM: standard forecast or significant change
Winds: from the NE (40 degrees) at 3 MPH (3 knots; 1.6 m/s)
Visibility: 3 miles (5 km)
Clouds: few clouds at 2000 feet AGL
Weather: HZ  (haze)
Text: BECMG 1615/1617 20006KT
Forecast period: 1500 UTC 16 July 2018 to 1800 UTC 17 July 2018
Forecast type: BECOMING: Conditions expected to become as follows by 1700 UTC 16 July 2018
Winds: from the SSW (200 degrees) at 7 MPH (6 knots; 3.1 m/s)
Visibility: 3 miles (5 km)
Clouds: few clouds at 2000 feet AGL
Weather: HZ  (haze)